메인 페이지
METAR-TAF:

METAR-TAF

공항 :

괄리오르, 인도

위도: 26-17-36N, 경도: 78-13-40E, 고도: 188m

현재 날씨관측

예보는 15 시간 26분 전, 07:30시(UTC)에 발표되었습니다.
11kt, 순간 최대 풍속 21kt
온도 47°C
습도 12%
기압 994 hPa
시정: 6000m
맑음

METAR: VIGR 280730Z 28011G21KT 6000 SKC 47/11 Q0994 TEMPO 27015G25KT

시각: 04:26 (22:56 UTC)

예보

예보는 13 시간 26분 전, 09:30시(UTC)에 발표되었습니다.
예보 대상 시간: 28일 12시부터 28일 24시까지 (UTC)
12kt
시정: 6000m
고도 3000ft 상공 구름 조금
전환 중
28일 22시부터 28일 24시까지 (UTC)
5kt
시정: 5000m
고도 3000ft 상공 구름 조금
연무,

TAF: VIGR 280930Z 2812/2824 28012KT 6000 FEW030 BECMG 2822/2824 26005KT 5000 HZ FEW030

4,000개 이상의 공항 관측 자료 및 예보 (METAR 및 TAF 보고).

지도상에서 검색 가능한 기상관측소가 노란 점과 빨간 점으로 표시되어 있습니다.

기상관측소 명을 보려면 표시 위로 마우스를 이동하세요.

날씨 관측과 예보를 보려면 클릭하세요.

지도 변경 : 확대하려면 엑스 표시가 있는 녹색 버튼, 축소하려면 빼기 표시가 있는 녹색 버튼, 다음 페이지의 지도를 보려면 녹색 화살표를 클릭하세요.


METAR-TAF: